Cumming, IA (50061)

10:04 AM CDT on April 19, 2015 (GMT -0500)
Norwalk, IA (2mi SW) | | Change Station
CLOSE
Current Station
Personal Weather Station
Location: Norwalk, IA
Elevation: 919 ft
Nearby Weather Stations

Elev 919 ft 41.46 °N, 93.71 °W | Updated 3 seconds ago

Overcast
Overcast
59.5 °F
Feels Like 59.5 °F
N
2.0
Wind Variable Wind from East
Gusts 2.7 mph

Today
High -- | Low -- °F
--% Chance of Precip.
Yesterday
High -- | Low -- °F
Precip. -- in
6:29 AM 7:59 PM
New Moon, 1% visible
Pressure 29.68 in
Visibility 8.0 miles
Clouds Mostly Cloudy 600 ft
Overcast 4300 ft
Dew Point 59 °F
Humidity 99%
Rainfall 0.07 in
Snow Depth Not available.
UV 1 out of 12
Pollen 2.30 out of 12
Air Quality Not available.
Flu Activity Local Activity
METAR KDSM 191454Z 00000KT 8SM BKN006 OVC043 16/13 A2969 RMK AO2 CIG 005V008 SLP050 60001 T01560133 57017 $

More Conditions Fewer Conditions

Pressure 29.68 in
Visibility 8.0 miles
Clouds Mostly Cloudy 600 ft
Overcast 4300 ft
Dew Point 59 °F
Humidity 99%
Rainfall 0.07 in
Snow Depth Not available.
UV 1 out of 12
Pollen 2.30 out of 12
Air Quality Not available.
Flu Activity Local Activity
METAR KDSM 191454Z 00000KT 8SM BKN006 OVC043 16/13 A2969 RMK AO2 CIG 005V008 SLP050 60001 T01560133 57017 $

More Conditions Fewer Conditions

10-Day Weather Forecast

Almanac

Astronomy

Apr. 19, 2015 Rise Set
Actual Time
Civil Twilight
Nautical Twilight
Astronomical Twilight
Moon
Length of Visible Light
Length of Day
Tomorrow will be .
, % of the Moon is Illuminated

Today's Extremes

State Highs State Lows

Community

WunderPhotos

Upload Photos

1,814,830 photos uploaded!

WunderBlogs® & News

Nearby

Air Quality

  Air Quality AQ Index Pollutant
Not available.

Snow Depth

Station Depth Elevation

Earthquake Activity

City Distance Mag. Time & Date
Minimum magnitude displayed is 2.5.

Coastal Water Temperatures

Place Temperature

Stations

Nearby Weather Stations

Station Location Temp. Windchill Dew Point Humidity Wind Precip. Elev Updated Type